Airfield :
LOGIN :

Register | Disclaimer

   EN    FR    IT 

 










Legend :    VFR   Marginal VFR   IFR   Intensive IFR   Very Intensive IFR
Visi :
Ceiling :
>= 8 km
>= 3000ft
5 to 8 km
1000 to 3000 ft
1500m to 5 km
500 to 1000 ft
800 to 1500m
200 to 500 ft
< 800m
< 200 ft
Symbols :   Thunderstorms  Fog  Heavy snow  Heavy precipitations  Wind > 20 kt
SIGMETs :     Misc.  Thunderstorms  Icing  Turbulence  Mountain Waves  Volcanic Ashes






- Airport Elevation : 0 ft


ETEB - Ansbach Army Heliport

CURRENT METAR :
  • 120556Z AUTO 12006KT 9999 CLR 20/18 A3008 RMK AO2 SLP181 T02000178 10200 20169 52002 $

EXPIRED METARs :
  • 120456Z AUTO 07005KT 9999 FEW140 18/18 A3007 RMK AO2 SLP182 T01840184 $
  • 120356Z AUTO 06004KT 9999 CLR 18/18 A3007 RMK AO2 SLP180 T01780178 $

TAF AMD TAF ETEB
Valid from the 11 at 21:00 until the 12 at 23:00 UTC


112122Z 1121/1223 04012KT 9999 SCT050 QNH3006INS
BECMG 1122/1123 VRB06KT 9999 FEW050 QNH3005INS TX30/1215Z TN19/1203Z LAST NO AMDS AFT 1122 NEXT 1209



MET'MAP, your aeronautical weather chart ! - Copyright ORBIFLY December 2007 - Disclaimer

ORBIFLY MET'MAP TEAM :

Programming & Development : Alexandra Zaïnal
Concept & original design : Baudouin d'Aumeries
Assistance for programming : Marc-Olivier Méhu
Technical & hardware support : Manuel Goepfert

Contact : metmap@orbifly.com




SOURCES & CREDITS :

   NOAA